Time;durP1;ratioP1;P1;durP2;ratioP2;P2;SDS_P1;SDS_P2;PMS_P1;PMS_P2;Temp;Humidity;BMP_temperature;BMP_pressure;BME280_temperature;BME280_humidity;BME280_pressure;Samples;Min_cycle;Max_cycle;Signal;HPM_P1;HPM_P2
2022/04/24 00:00:40;;;;;;;0.00;0.00;;;10.90;99.90;;;;;;5133648;28;20030;-72
2022/04/24 00:03:06;;;;;;;0.00;0.00;;;10.90;99.90;;;;;;5132087;28;20015;-70
2022/04/24 00:05:32;;;;;;;0.00;0.00;;;10.90;99.90;;;;;;5129264;28;20022;-71
2022/04/24 00:07:58;;;;;;;0.00;0.00;;;10.90;99.90;;;;;;5136396;28;20015;-71
2022/04/24 00:10:23;;;;;;;0.00;0.00;;;10.90;99.90;;;;;;5128691;28;20047;-71
2022/04/24 00:12:50;;;;;;;0.00;0.00;;;10.90;99.90;;;;;;5131591;28;20069;-70
2022/04/24 00:15:16;;;;;;;0.00;0.00;;;10.90;99.90;;;;;;5134908;28;20010;-70
2022/04/24 00:17:41;;;;;;;0.00;0.00;;;10.90;99.90;;;;;;5131898;28;20012;-71
2022/04/24 00:20:10;;;;;;;0.00;0.00;;;10.90;99.90;;;;;;5132368;28;20102;-71
2022/04/24 00:22:36;;;;;;;0.00;0.00;;;10.90;99.90;;;;;;5125976;28;20071;-71
2022/04/24 00:25:02;;;;;;;0.00;0.00;;;10.90;99.90;;;;;;5137197;28;20019;-70
2022/04/24 00:27:28;;;;;;;0.00;0.00;;;10.90;99.90;;;;;;5135977;28;20779;-71
2022/04/24 00:29:53;;;;;;;0.00;0.00;;;10.90;99.90;;;;;;5141060;28;20023;-71
2022/04/24 00:32:19;;;;;;;0.00;0.00;;;10.90;99.90;;;;;;5139113;28;20020;-71
2022/04/24 00:34:44;;;;;;;0.00;0.00;;;10.90;99.90;;;;;;5138759;28;20027;-70
2022/04/24 00:37:10;;;;;;;0.00;0.00;;;11.00;99.90;;;;;;5139287;28;20012;-70
2022/04/24 00:39:36;;;;;;;0.00;0.00;;;10.90;99.90;;;;;;5138730;28;20007;-73
2022/04/24 00:42:01;;;;;;;0.00;0.00;;;10.80;99.90;;;;;;5132703;28;20036;-70
2022/04/24 00:44:28;;;;;;;0.00;0.00;;;10.80;99.90;;;;;;5136450;28;20092;-71
2022/04/24 00:47:13;;;;;;;0.00;0.00;;;10.70;99.90;;;;;;5134915;28;20043;-71
2022/04/24 00:49:41;;;;;;;0.00;0.00;;;10.70;99.90;;;;;;5137783;28;20110;-70
2022/04/24 00:52:07;;;;;;;0.00;0.00;;;10.70;99.90;;;;;;5139372;28;20018;-71
2022/04/24 00:54:33;;;;;;;0.00;0.00;;;10.70;99.90;;;;;;5137333;28;20020;-71
2022/04/24 00:56:58;;;;;;;0.00;0.00;;;10.60;99.90;;;;;;5138799;28;20020;-70
2022/04/24 00:59:24;;;;;;;0.00;0.00;;;10.60;99.90;;;;;;5135849;28;20032;-71
2022/04/24 01:01:50;;;;;;;0.00;0.00;;;10.50;99.90;;;;;;5136261;28;20043;-70
2022/04/24 01:04:18;;;;;;;0.00;0.00;;;10.50;99.90;;;;;;5136706;28;20004;-70
2022/04/24 01:06:44;;;;;;;0.00;0.00;;;10.50;99.90;;;;;;5131151;28;20026;-71
2022/04/24 01:09:36;;;;;;;;;;;10.40;99.90;;;;;;5139456;28;20012;-71
2022/04/24 01:12:03;;;;;;;0.00;0.00;;;10.40;99.90;;;;;;5132164;28;20007;-72
2022/04/24 01:14:30;;;;;;;0.00;0.00;;;10.40;99.90;;;;;;5136513;28;20043;-70
2022/04/24 01:16:56;;;;;;;0.00;0.00;;;10.40;99.90;;;;;;5129664;28;20012;-70
2022/04/24 01:19:24;;;;;;;0.00;0.00;;;10.40;99.90;;;;;;5136513;28;20032;-70
2022/04/24 01:21:50;;;;;;;0.00;0.00;;;10.40;99.90;;;;;;5119080;28;20028;-70
2022/04/24 01:24:21;;;;;;;0.00;0.00;;;10.40;99.90;;;;;;5139474;28;20011;-71
2022/04/24 01:26:48;;;;;;;0.00;0.00;;;10.40;99.90;;;;;;5133228;28;20038;-71
2022/04/24 01:29:14;;;;;;;0.00;0.00;;;10.30;99.90;;;;;;5137825;28;20020;-70
2022/04/24 01:31:40;;;;;;;0.00;0.00;;;10.30;99.90;;;;;;5138091;28;20081;-71
2022/04/24 01:34:06;;;;;;;;;;;10.30;99.90;;;;;;5136883;28;20073;-70
2022/04/24 01:36:32;;;;;;;0.00;0.00;;;10.30;99.90;;;;;;5138564;28;19899;-71
2022/04/24 01:38:57;;;;;;;0.00;0.00;;;10.40;99.90;;;;;;5138805;28;20023;-71
2022/04/24 01:41:23;;;;;;;0.00;0.00;;;10.30;99.90;;;;;;5136810;28;20016;-71
2022/04/24 01:43:49;;;;;;;0.00;0.00;;;10.40;99.90;;;;;;5138874;28;20011;-71
2022/04/24 01:46:18;;;;;;;0.00;0.00;;;10.40;99.90;;;;;;5133083;27;20016;-71
2022/04/24 01:48:47;;;;;;;0.00;0.00;;;10.40;99.90;;;;;;5133701;28;20012;-70
2022/04/24 01:51:14;;;;;;;0.00;0.00;;;10.30;99.90;;;;;;5136693;28;20019;-71
2022/04/24 01:53:41;;;;;;;0.00;0.00;;;10.30;99.90;;;;;;5137121;28;20132;-71
2022/04/24 01:56:07;;;;;;;;;;;10.20;99.90;;;;;;5138956;28;20041;-71
2022/04/24 01:58:34;;;;;;;0.00;0.00;;;10.20;99.90;;;;;;5128502;28;19968;-71
2022/04/24 02:01:00;;;;;;;0.00;0.00;;;10.30;99.90;;;;;;5137138;28;20025;-71
2022/04/24 02:03:27;;;;;;;;;;;10.20;99.90;;;;;;5126155;28;20016;-70
2022/04/24 02:05:53;;;;;;;0.00;0.00;;;10.20;99.90;;;;;;5138910;28;19898;-70
2022/04/24 02:08:18;;;;;;;;;;;10.20;99.90;;;;;;5139583;28;20016;-70
2022/04/24 02:10:44;;;;;;;0.00;0.00;;;10.20;99.90;;;;;;5134630;28;19903;-70
2022/04/24 02:13:10;;;;;;;;;;;10.20;99.90;;;;;;5134155;28;20027;-70
2022/04/24 02:15:36;;;;;;;0.00;0.00;;;10.20;99.90;;;;;;5136253;28;19908;-70
2022/04/24 02:18:02;;;;;;;0.00;0.00;;;10.20;99.90;;;;;;5134546;28;20057;-71
2022/04/24 02:20:31;;;;;;;;;;;10.10;99.90;;;;;;5134988;28;20091;-70
2022/04/24 02:23:00;;;;;;;0.00;0.00;;;10.10;99.90;;;;;;5137235;28;19902;-71
2022/04/24 02:25:26;;;;;;;0.00;0.00;;;10.10;99.90;;;;;;5135781;28;20083;-70
2022/04/24 02:27:54;;;;;;;0.00;0.00;;;10.10;99.90;;;;;;5135553;28;20071;-71
2022/04/24 02:30:24;;;;;;;0.00;0.00;;;10.10;99.90;;;;;;5133801;28;20032;-71
2022/04/24 02:32:50;;;;;;;0.00;0.00;;;10.00;99.90;;;;;;5135099;28;20012;-70
2022/04/24 02:35:16;;;;;;;0.00;0.00;;;10.00;99.90;;;;;;5133181;28;20009;-71
2022/04/24 02:37:42;;;;;;;0.00;0.00;;;10.10;99.90;;;;;;5131325;28;20032;-71
2022/04/24 02:40:09;;;;;;;0.00;0.00;;;10.00;99.90;;;;;;5133137;28;20079;-71
2022/04/24 02:42:39;;;;;;;0.00;0.00;;;10.10;99.90;;;;;;5127997;28;20016;-71
2022/04/24 02:45:06;;;;;;;0.00;0.00;;;10.00;99.90;;;;;;5132389;28;20366;-72
2022/04/24 02:47:33;;;;;;;0.00;0.00;;;10.00;99.90;;;;;;5132619;28;20037;-70
2022/04/24 02:49:59;;;;;;;0.00;0.00;;;10.00;99.90;;;;;;5132257;28;20031;-69
2022/04/24 02:52:24;;;;;;;0.00;0.00;;;10.00;99.90;;;;;;5132469;28;20016;-70
2022/04/24 02:54:50;;;;;;;0.00;0.00;;;10.10;99.90;;;;;;5134323;28;20015;-70
2022/04/24 02:57:16;;;;;;;0.00;0.00;;;10.10;99.90;;;;;;5133564;28;20035;-70
2022/04/24 02:59:42;;;;;;;0.00;0.00;;;10.00;99.90;;;;;;5117404;28;20420;-71
2022/04/24 03:02:09;;;;;;;0.00;0.00;;;10.00;99.90;;;;;;5092150;28;20027;-72
2022/04/24 03:04:35;;;;;;;0.00;0.00;;;10.00;99.90;;;;;;5106360;28;20016;-73
2022/04/24 03:07:01;;;;;;;0.00;0.00;;;10.00;99.90;;;;;;5103154;28;20107;-73
2022/04/24 03:09:27;;;;;;;0.00;0.00;;;10.00;99.90;;;;;;5106049;28;20028;-72
2022/04/24 03:11:53;;;;;;;0.00;0.00;;;9.90;99.90;;;;;;5104652;28;20059;-72
2022/04/24 03:14:18;;;;;;;0.00;0.00;;;10.00;99.90;;;;;;5093388;28;20119;-72
2022/04/24 03:16:44;;;;;;;0.00;0.00;;;10.00;99.90;;;;;;5098848;28;20024;-72
2022/04/24 03:19:10;;;;;;;0.00;0.00;;;10.00;99.90;;;;;;5107011;28;20381;-73
2022/04/24 03:21:35;;;;;;;0.00;0.00;;;10.00;99.90;;;;;;5110500;28;20032;-73
2022/04/24 03:24:01;;;;;;;0.00;0.00;;;9.90;99.90;;;;;;5107476;28;20031;-73
2022/04/24 03:26:27;;;;;;;0.00;0.00;;;9.90;99.90;;;;;;5103339;28;20080;-72
2022/04/24 03:28:52;;;;;;;0.00;0.00;;;9.90;99.90;;;;;;5108134;28;20111;-73
2022/04/24 03:31:18;;;;;;;0.00;0.00;;;9.80;99.90;;;;;;5101926;28;20107;-72
2022/04/24 03:33:43;;;;;;;0.00;0.00;;;9.80;99.90;;;;;;5097622;28;20027;-72
2022/04/24 03:36:09;;;;;;;0.00;0.00;;;9.80;99.90;;;;;;5105630;28;20020;-73
2022/04/24 03:38:35;;;;;;;0.00;0.00;;;9.70;99.90;;;;;;5105567;28;20032;-73
2022/04/24 03:41:01;;;;;;;0.00;0.00;;;9.70;99.90;;;;;;5104623;28;20360;-73
2022/04/24 03:43:27;;;;;;;0.00;0.00;;;9.70;99.90;;;;;;5108951;28;20362;-73
2022/04/24 03:45:53;;;;;;;0.00;0.00;;;9.70;99.90;;;;;;5102404;28;20092;-74
2022/04/24 03:48:18;;;;;;;0.00;0.00;;;9.70;99.90;;;;;;5103282;28;20385;-73
2022/04/24 03:50:44;;;;;;;0.00;0.00;;;9.70;99.90;;;;;;5099509;28;20377;-72
2022/04/24 03:53:12;;;;;;;0.00;0.00;;;9.60;99.90;;;;;;5107725;28;20039;-73
2022/04/24 03:55:38;;;;;;;0.00;0.00;;;9.50;99.90;;;;;;5098619;28;20420;-73
2022/04/24 03:58:04;;;;;;;0.00;0.00;;;9.50;99.90;;;;;;5095786;28;20027;-72
2022/04/24 04:00:30;;;;;;;0.00;0.00;;;9.50;99.90;;;;;;5103129;28;20043;-73
2022/04/24 04:02:56;;;;;;;0.00;0.00;;;9.50;99.90;;;;;;5094836;28;20035;-72
2022/04/24 04:05:22;;;;;;;0.00;0.00;;;9.50;99.90;;;;;;5106604;28;20028;-71
2022/04/24 04:07:48;;;;;;;0.00;0.00;;;9.50;99.90;;;;;;5099422;28;20036;-71
2022/04/24 04:10:14;;;;;;;0.00;0.00;;;9.40;99.90;;;;;;5107945;28;20036;-72
2022/04/24 04:12:39;;;;;;;0.00;0.00;;;9.50;99.90;;;;;;5106130;28;20058;-73
2022/04/24 04:15:06;;;;;;;0.00;0.00;;;9.50;99.90;;;;;;5108043;28;20111;-71
2022/04/24 04:17:32;;;;;;;0.00;0.00;;;9.40;99.90;;;;;;5110483;28;20073;-71
2022/04/24 04:19:59;;;;;;;0.00;0.00;;;9.40;99.90;;;;;;5105746;28;20434;-71
2022/04/24 04:22:25;;;;;;;0.00;0.00;;;9.40;99.90;;;;;;5102664;28;20441;-73
2022/04/24 04:24:51;;;;;;;0.00;0.00;;;9.40;99.90;;;;;;5103298;28;20438;-72
2022/04/24 04:27:17;;;;;;;0.00;0.00;;;9.40;99.90;;;;;;5102806;28;20489;-72
2022/04/24 04:29:43;;;;;;;0.00;0.00;;;9.40;99.90;;;;;;5110458;28;20053;-73
2022/04/24 04:32:09;;;;;;;0.00;0.00;;;9.30;99.90;;;;;;5095498;28;20039;-72
2022/04/24 04:34:34;;;;;;;0.00;0.00;;;9.30;99.90;;;;;;5106775;28;20079;-72
2022/04/24 04:37:00;;;;;;;0.00;0.00;;;9.30;99.90;;;;;;5107360;28;20060;-73
2022/04/24 04:39:26;;;;;;;0.00;0.00;;;9.30;99.90;;;;;;5091222;28;20459;-71
2022/04/24 04:41:52;;;;;;;0.00;0.00;;;9.30;99.90;;;;;;5110131;28;20035;-72
2022/04/24 04:44:17;;;;;;;0.00;0.00;;;9.30;99.90;;;;;;5106740;28;20497;-72
2022/04/24 04:46:43;;;;;;;0.00;0.00;;;9.20;99.90;;;;;;5106609;28;20023;-72
2022/04/24 04:49:09;;;;;;;0.00;0.00;;;9.10;99.90;;;;;;5103210;28;20036;-73
2022/04/24 04:51:35;;;;;;;0.00;0.00;;;9.20;99.90;;;;;;5108417;28;20160;-71
2022/04/24 04:54:01;;;;;;;0.00;0.00;;;9.10;99.90;;;;;;5107620;28;20053;-72
2022/04/24 04:56:27;;;;;;;0.00;0.00;;;9.10;99.90;;;;;;5105862;28;20111;-72
2022/04/24 04:58:53;;;;;;;0.00;0.00;;;9.20;99.90;;;;;;5104792;28;20023;-73
2022/04/24 05:01:18;;;;;;;0.00;0.00;;;9.20;99.90;;;;;;5098344;28;20036;-73
2022/04/24 05:03:44;;;;;;;0.00;0.00;;;9.20;99.90;;;;;;5097059;28;20024;-73
2022/04/24 05:06:10;;;;;;;0.00;0.00;;;9.30;99.90;;;;;;5093444;28;20035;-72
2022/04/24 05:08:36;;;;;;;0.00;0.00;;;9.30;99.90;;;;;;5105532;28;20024;-72
2022/04/24 05:11:01;;;;;;;0.00;0.00;;;9.20;99.90;;;;;;5110375;28;20465;-73
2022/04/24 05:13:28;;;;;;;0.00;0.00;;;9.20;99.90;;;;;;5100817;28;20036;-73
2022/04/24 05:15:53;;;;;;;;;;;9.20;99.90;;;;;;5102053;28;20027;-71
2022/04/24 05:18:19;;;;;;;0.00;0.00;;;9.20;99.90;;;;;;5109370;28;19907;-72
2022/04/24 05:20:45;;;;;;;0.00;0.00;;;9.20;99.90;;;;;;5104387;28;20115;-73
2022/04/24 05:23:11;;;;;;;0.00;0.00;;;9.30;99.90;;;;;;5101357;28;20020;-73
2022/04/24 05:25:37;;;;;;;;;;;9.30;99.90;;;;;;5107287;28;20019;-71
2022/04/24 05:28:04;;;;;;;0.00;0.00;;;9.30;99.90;;;;;;5109714;28;19930;-72
2022/04/24 05:30:29;;;;;;;0.00;0.00;;;9.30;99.90;;;;;;5106969;28;20024;-72
2022/04/24 05:32:55;;;;;;;0.00;0.00;;;9.30;99.90;;;;;;5100107;28;20030;-72
2022/04/24 05:35:21;;;;;;;0.00;0.00;;;9.30;99.90;;;;;;5110829;28;20027;-72
2022/04/24 05:37:48;;;;;;;0.00;0.00;;;9.30;99.90;;;;;;5099157;28;20020;-73
2022/04/24 05:40:14;;;;;;;;;;;9.40;99.90;;;;;;5099443;28;20061;-73
2022/04/24 05:42:52;;;;;;;0.00;0.00;;;9.40;99.90;;;;;;5104032;27;20362;-72
2022/04/24 05:45:22;;;;;;;0.00;0.00;;;9.50;99.90;;;;;;5104467;28;20055;-72
2022/04/24 05:47:54;;;;;;;0.00;0.00;;;9.40;99.90;;;;;;5105558;28;20055;-71
2022/04/24 05:50:23;;;;;;;0.00;0.00;;;9.50;99.90;;;;;;5111191;28;20055;-73
2022/04/24 05:52:55;;;;;;;0.00;0.00;;;9.60;99.90;;;;;;5103809;28;20366;-71
2022/04/24 05:55:20;;;;;;;0.00;0.00;;;9.60;99.90;;;;;;5094997;28;20028;-73
2022/04/24 05:57:49;;;;;;;0.00;0.00;;;9.60;99.90;;;;;;5107158;28;20073;-73
2022/04/24 06:00:16;;;;;;;0.00;0.00;;;9.70;99.90;;;;;;5100614;27;20031;-73
2022/04/24 06:02:42;;;;;;;0.00;0.00;;;9.80;99.90;;;;;;5100020;28;20035;-73
2022/04/24 06:05:10;;;;;;;0.00;0.00;;;9.70;99.90;;;;;;5094813;28;20031;-72
2022/04/24 06:07:36;;;;;;;0.00;0.00;;;9.70;99.90;;;;;;5100284;28;20034;-72
2022/04/24 06:10:03;;;;;;;;;;;9.70;99.90;;;;;;5106099;28;20422;-73
2022/04/24 06:12:29;;;;;;;0.00;0.00;;;9.80;99.90;;;;;;5108349;28;19907;-72
2022/04/24 06:14:57;;;;;;;0.00;0.00;;;9.70;99.90;;;;;;5112470;28;20110;-72
2022/04/24 06:17:24;;;;;;;0.00;0.00;;;9.80;99.90;;;;;;5101378;28;20030;-71
2022/04/24 06:19:50;;;;;;;0.00;0.00;;;9.80;99.90;;;;;;5105147;28;20028;-72
2022/04/24 06:22:15;;;;;;;0.00;0.00;;;9.80;99.90;;;;;;5097148;28;20024;-71
2022/04/24 06:24:41;;;;;;;0.00;0.00;;;9.80;99.90;;;;;;5107275;28;20027;-72
2022/04/24 06:27:06;;;;;;;0.00;0.00;;;9.90;99.90;;;;;;5119955;28;20372;-71
2022/04/24 06:29:32;;;;;;;0.00;0.00;;;10.00;99.90;;;;;;5107854;28;20036;-72
2022/04/24 06:31:58;;;;;;;0.00;0.00;;;10.00;99.90;;;;;;5112399;28;20030;-73
2022/04/24 06:34:24;;;;;;;0.00;0.00;;;10.00;99.90;;;;;;5111776;28;20092;-73
2022/04/24 06:36:49;;;;;;;0.00;0.00;;;10.00;99.90;;;;;;5105080;28;20026;-73
2022/04/24 06:39:15;;;;;;;0.00;0.00;;;10.00;99.90;;;;;;5105063;28;20039;-72
2022/04/24 06:41:41;;;;;;;0.00;0.00;;;10.10;99.90;;;;;;5106752;28;20028;-72
2022/04/24 06:44:07;;;;;;;0.00;0.00;;;10.10;99.90;;;;;;5108805;28;20410;-72
2022/04/24 06:46:32;;;;;;;0.00;0.00;;;10.10;99.90;;;;;;5102423;28;20401;-73
2022/04/24 06:48:58;;;;;;;0.00;0.00;;;10.10;99.90;;;;;;5107473;28;20028;-73
2022/04/24 06:51:24;;;;;;;0.00;0.00;;;10.20;99.90;;;;;;5095669;28;20085;-72
2022/04/24 06:53:50;;;;;;;0.00;0.00;;;10.30;99.90;;;;;;5105963;28;20067;-73
2022/04/24 06:56:15;;;;;;;0.00;0.00;;;10.20;99.90;;;;;;5100560;28;20028;-74
2022/04/24 06:58:41;;;;;;;0.00;0.00;;;10.30;99.90;;;;;;5110935;28;20393;-72
2022/04/24 07:01:07;;;;;;;0.00;0.00;;;10.40;99.90;;;;;;5102312;28;20102;-73
2022/04/24 07:03:36;;;;;;;0.00;0.00;;;10.40;99.90;;;;;;5104986;28;20116;-72
2022/04/24 07:06:02;;;;;;;0.00;0.00;;;10.50;99.90;;;;;;5110213;28;20052;-73
2022/04/24 07:08:29;;;;;;;0.00;0.00;;;10.60;99.90;;;;;;5109345;28;20066;-72
2022/04/24 07:10:55;;;;;;;0.00;0.00;;;10.60;99.90;;;;;;5103682;28;20083;-73
2022/04/24 07:13:21;;;;;;;0.00;0.00;;;10.50;99.90;;;;;;5099432;28;20063;-74
2022/04/24 07:15:47;;;;;;;0.00;0.00;;;10.50;99.90;;;;;;5103095;28;20023;-73
2022/04/24 07:18:13;;;;;;;0.00;0.00;;;10.50;99.90;;;;;;5105654;28;20114;-74
2022/04/24 07:20:39;;;;;;;0.00;0.00;;;10.50;99.90;;;;;;5104593;28;20235;-74
2022/04/24 07:23:07;;;;;;;0.00;0.00;;;10.50;99.90;;;;;;5100019;28;20028;-73
2022/04/24 07:25:40;;;;;;;0.00;0.00;;;10.70;99.90;;;;;;5109325;28;20027;-72
2022/04/24 07:28:06;;;;;;;0.00;0.00;;;10.70;99.90;;;;;;5109738;28;20023;-73
2022/04/24 07:30:32;;;;;;;0.00;0.00;;;10.80;99.90;;;;;;5110854;28;20032;-73
2022/04/24 07:32:59;;;;;;;0.00;0.00;;;10.80;99.90;;;;;;5112339;28;20031;-73
2022/04/24 07:35:32;;;;;;;0.00;0.00;;;10.90;99.90;;;;;;5112846;28;20069;-74
2022/04/24 07:37:58;;;;;;;0.00;0.00;;;10.90;99.90;;;;;;5109552;28;20442;-73
2022/04/24 07:40:26;;;;;;;0.00;0.00;;;10.90;99.90;;;;;;5108703;28;20499;-73
2022/04/24 07:43:00;;;;;;;0.00;0.00;;;10.90;99.90;;;;;;5107252;28;20030;-73
2022/04/24 07:45:43;;;;;;;0.00;0.00;;;11.00;99.90;;;;;;5109762;28;20528;-73
2022/04/24 07:48:11;;;;;;;0.00;0.00;;;11.10;99.90;;;;;;5106544;28;20016;-73
2022/04/24 07:50:38;;;;;;;0.00;0.00;;;11.10;99.90;;;;;;5106118;28;20059;-74
2022/04/24 07:53:05;;;;;;;0.00;0.00;;;11.00;99.90;;;;;;5109556;28;20079;-74
2022/04/24 07:55:30;;;;;;;0.00;0.00;;;11.00;99.90;;;;;;5111668;28;20024;-72
2022/04/24 07:57:57;;;;;;;0.00;0.00;;;10.80;99.90;;;;;;5106931;28;20098;-74
2022/04/24 08:00:28;;;;;;;0.00;0.00;;;10.90;99.90;;;;;;5108829;28;20536;-72
2022/04/24 08:03:01;;;;;;;0.00;0.00;;;11.10;99.90;;;;;;5110001;28;20024;-74
2022/04/24 08:05:37;;;;;;;0.00;0.00;;;11.20;99.90;;;;;;5106371;28;20036;-73
2022/04/24 08:08:10;;;;;;;0.00;0.00;;;11.30;99.90;;;;;;5111468;28;20023;-69
2022/04/24 08:10:42;;;;;;;0.00;0.00;;;11.30;99.90;;;;;;5109755;28;20043;-69
2022/04/24 08:13:08;;;;;;;0.00;0.00;;;11.30;99.90;;;;;;5111568;28;20541;-70
2022/04/24 08:15:35;;;;;;;0.00;0.00;;;11.30;99.90;;;;;;5111674;28;20156;-69
2022/04/24 08:18:02;;;;;;;0.00;0.00;;;11.40;99.90;;;;;;5109010;28;20023;-70
2022/04/24 08:20:29;;;;;;;0.00;0.00;;;11.40;99.90;;;;;;5107151;28;20066;-69
2022/04/24 08:22:57;;;;;;;0.00;0.00;;;11.40;99.90;;;;;;5107020;28;20362;-70
2022/04/24 08:25:24;;;;;;;0.00;0.00;;;11.50;99.90;;;;;;5103622;28;20106;-69
2022/04/24 08:27:52;;;;;;;0.00;0.00;;;11.70;99.90;;;;;;5096844;28;20025;-71
2022/04/24 08:30:19;;;;;;;0.00;0.00;;;11.60;99.90;;;;;;5099043;28;20084;-70
2022/04/24 08:32:45;;;;;;;0.00;0.00;;;11.60;99.90;;;;;;5099828;28;20031;-69
2022/04/24 08:35:12;;;;;;;0.00;0.00;;;11.70;99.90;;;;;;5105380;28;20414;-71
2022/04/24 08:37:39;;;;;;;0.00;0.00;;;11.70;99.90;;;;;;5090646;28;20043;-70
2022/04/24 08:40:06;;;;;;;0.00;0.00;;;11.80;99.90;;;;;;5099515;28;20100;-70
2022/04/24 08:42:33;;;;;;;0.00;0.00;;;11.90;99.90;;;;;;5102432;28;20024;-70
2022/04/24 08:45:00;;;;;;;0.00;0.00;;;12.10;99.90;;;;;;5097785;28;20525;-69
2022/04/24 08:47:29;;;;;;;0.00;0.00;;;12.30;99.90;;;;;;5109883;28;20024;-70
2022/04/24 08:50:00;;;;;;;0.00;0.00;;;12.40;99.90;;;;;;5109607;28;20132;-70
2022/04/24 08:52:28;;;;;;;0.00;0.00;;;12.50;99.90;;;;;;5119576;28;20092;-69
2022/04/24 08:54:55;;;;;;;0.00;0.00;;;12.60;99.90;;;;;;5119094;28;20028;-69
2022/04/24 08:57:26;;;;;;;0.00;0.00;;;12.60;99.90;;;;;;5114597;28;20054;-75
2022/04/24 08:59:56;;;;;;;0.00;0.00;;;12.70;99.90;;;;;;5106701;28;20101;-70
2022/04/24 09:02:22;;;;;;;0.00;0.00;;;12.90;99.90;;;;;;5104042;28;20028;-70
2022/04/24 09:04:48;;;;;;;0.00;0.00;;;13.00;99.90;;;;;;5103959;28;20380;-70
2022/04/24 09:07:20;;;;;;;0.00;0.00;;;13.20;99.90;;;;;;5104796;28;20477;-71
2022/04/24 09:09:53;;;;;;;0.00;0.00;;;13.20;99.90;;;;;;5105954;28;20058;-69
2022/04/24 09:12:23;;;;;;;0.00;0.00;;;13.10;99.90;;;;;;5109281;28;20043;-74
2022/04/24 09:14:51;;;;;;;0.00;0.00;;;12.90;99.90;;;;;;5107221;28;20031;-71
2022/04/24 09:17:22;;;;;;;0.00;0.00;;;13.00;99.90;;;;;;5107473;28;20035;-70
2022/04/24 09:19:48;;;;;;;0.00;0.00;;;12.80;99.90;;;;;;5106984;28;20028;-71
2022/04/24 09:22:14;;;;;;;0.00;0.00;;;12.80;99.90;;;;;;5110947;28;20136;-70
2022/04/24 09:24:47;;;;;;;0.00;0.00;;;12.80;99.90;;;;;;5110950;28;20106;-71
2022/04/24 09:27:25;;;;;;;0.00;0.00;;;12.70;99.90;;;;;;5098157;28;20453;-70
2022/04/24 09:29:56;;;;;;;0.00;0.00;;;12.60;99.90;;;;;;5104730;28;20031;-71
2022/04/24 09:32:27;;;;;;;0.00;0.00;;;12.60;99.90;;;;;;5108683;28;20027;-70
2022/04/24 09:34:53;;;;;;;0.00;0.00;;;12.60;99.90;;;;;;5098588;28;20031;-70
2022/04/24 09:37:21;;;;;;;0.00;0.00;;;12.80;99.90;;;;;;5105787;28;21513;-70
2022/04/24 09:39:48;;;;;;;0.00;0.00;;;12.90;99.90;;;;;;5111630;28;20032;-71
2022/04/24 09:42:16;;;;;;;0.00;0.00;;;13.10;99.90;;;;;;5109704;28;20024;-71
2022/04/24 09:44:48;;;;;;;0.00;0.00;;;13.40;99.90;;;;;;5111148;27;20033;-70
2022/04/24 09:47:17;;;;;;;0.00;0.00;;;13.70;99.90;;;;;;5107218;28;20026;-69
2022/04/24 09:49:50;;;;;;;0.00;0.00;;;13.80;99.90;;;;;;5105414;28;20024;-70
2022/04/24 09:52:20;;;;;;;0.00;0.00;;;13.80;99.90;;;;;;5106387;28;20066;-69
2022/04/24 09:54:50;;;;;;;0.00;0.00;;;13.70;99.90;;;;;;5105603;28;20032;-71
2022/04/24 09:57:21;;;;;;;0.00;0.00;;;13.70;99.90;;;;;;5106222;28;20034;-70
2022/04/24 09:59:48;;;;;;;0.00;0.00;;;13.80;99.90;;;;;;5103562;28;20426;-70
2022/04/24 10:02:18;;;;;;;0.00;0.00;;;13.80;99.90;;;;;;5107577;28;20381;-70
2022/04/24 10:04:46;;;;;;;0.00;0.00;;;13.90;99.90;;;;;;5106010;28;20440;-70
2022/04/24 10:07:14;;;;;;;0.00;0.00;;;14.00;99.90;;;;;;5109373;28;20039;-70
2022/04/24 10:09:42;;;;;;;0.00;0.00;;;14.20;99.90;;;;;;5101899;28;20035;-71
2022/04/24 10:12:11;;;;;;;0.00;0.00;;;14.30;99.90;;;;;;5107457;28;20054;-69
2022/04/24 10:14:44;;;;;;;0.00;0.00;;;14.30;99.90;;;;;;5110841;28;20367;-71
2022/04/24 10:17:26;;;;;;;0.00;0.00;;;14.40;99.90;;;;;;5108367;28;20465;-71
2022/04/24 10:20:19;;;;;;;0.00;0.00;;;14.30;99.90;;;;;;5096431;28;20035;-70
2022/04/24 10:22:50;;;;;;;0.00;0.00;;;14.50;99.90;;;;;;5112290;28;20151;-70
2022/04/24 10:25:16;;;;;;;0.00;0.00;;;14.60;99.90;;;;;;5112214;28;20043;-70
2022/04/24 10:27:43;;;;;;;;;;;14.60;99.90;;;;;;5107205;28;20038;-72
2022/04/24 10:30:23;;;;;;;0.00;0.00;;;14.60;99.90;;;;;;5101085;28;19908;-70
2022/04/24 10:33:10;;;;;;;0.00;0.00;;;14.70;99.90;;;;;;5109792;28;20090;-71
2022/04/24 10:35:49;;;;;;;0.00;0.00;;;14.80;99.90;;;;;;5121686;28;20027;-70
2022/04/24 10:38:17;;;;;;;0.00;0.00;;;14.90;99.90;;;;;;5113156;28;20027;-71
2022/04/24 10:41:03;;;;;;;0.00;0.00;;;15.00;99.90;;;;;;5122804;28;20060;-70
2022/04/24 10:43:49;;;;;;;0.00;0.00;;;15.20;99.90;;;;;;5112628;28;20024;-69
2022/04/24 10:46:18;;;;;;;0.00;0.00;;;15.30;99.90;;;;;;5103621;28;20024;-70
2022/04/24 10:48:48;;;;;;;0.00;0.00;;;15.30;99.90;;;;;;5124569;28;20041;-70
2022/04/24 10:51:25;;;;;;;0.00;0.00;;;15.20;99.90;;;;;;5121067;28;20028;-69
2022/04/24 10:53:55;;;;;;;0.00;0.00;;;15.20;99.90;;;;;;5121898;28;20024;-69
2022/04/24 10:56:21;;;;;;;0.00;0.00;;;15.40;99.90;;;;;;5129261;28;20039;-74
2022/04/24 10:58:49;;;;;;;0.00;0.00;;;15.40;99.90;;;;;;5125960;28;20032;-69
2022/04/24 11:01:15;;;;;;;0.00;0.00;;;15.40;99.90;;;;;;5119609;28;20036;-72
2022/04/24 11:03:46;;;;;;;0.00;0.00;;;15.40;99.90;;;;;;5111296;28;20027;-69
2022/04/24 11:06:23;;;;;;;0.00;0.00;;;15.40;99.90;;;;;;5114002;28;20023;-69
2022/04/24 11:08:50;;;;;;;0.00;0.00;;;15.60;99.90;;;;;;5121217;28;20027;-70
2022/04/24 11:11:18;;;;;;;0.00;0.00;;;15.70;99.90;;;;;;5119611;28;20430;-70
2022/04/24 11:13:44;;;;;;;0.00;0.00;;;15.70;99.90;;;;;;5123438;28;20020;-69
2022/04/24 11:16:12;;;;;;;0.00;0.00;;;15.80;99.90;;;;;;5109002;28;20023;-69
2022/04/24 11:18:38;;;;;;;0.00;0.00;;;15.90;99.90;;;;;;5117120;28;20024;-71
2022/04/24 11:21:04;;;;;;;;;;;15.90;99.90;;;;;;5119916;28;20024;-69
2022/04/24 11:23:38;;;;;;;0.00;0.00;;;16.00;99.90;;;;;;5123095;28;19908;-69
2022/04/24 11:26:12;;;;;;;0.00;0.00;;;16.00;99.90;;;;;;5119694;28;20031;-70
2022/04/24 11:28:43;;;;;;;0.00;0.00;;;16.10;99.90;;;;;;5111752;28;20039;-71
2022/04/24 11:31:11;;;;;;;0.00;0.00;;;16.10;99.90;;;;;;5098285;28;20020;-71
2022/04/24 11:33:38;;;;;;;0.00;0.00;;;16.10;99.90;;;;;;5101823;28;20423;-72
2022/04/24 11:36:05;;;;;;;0.00;0.00;;;16.30;99.90;;;;;;5102464;28;20024;-72
2022/04/24 11:38:32;;;;;;;0.00;0.00;;;16.40;99.90;;;;;;5099132;28;20715;-71
2022/04/24 11:41:03;;;;;;;0.00;0.00;;;16.60;99.90;;;;;;5114925;28;20027;-71
2022/04/24 11:43:29;;;;;;;0.00;0.00;;;16.60;99.90;;;;;;5109302;28;20042;-70
2022/04/24 11:51:24;;;;;;;0.00;0.00;;;16.80;99.80;;;;;;5102004;28;20102;-70
2022/04/24 11:53:51;;;;;;;0.00;0.00;;;16.80;99.90;;;;;;5105517;28;20032;-70
2022/04/24 11:56:18;;;;;;;0.00;0.00;;;16.70;98.50;;;;;;5111307;28;20060;-71
2022/04/24 11:58:44;;;;;;;0.00;0.00;;;16.90;98.40;;;;;;5098300;28;20028;-70
2022/04/24 12:01:13;;;;;;;0.00;0.00;;;17.20;98.40;;;;;;5098986;28;20016;-70
2022/04/24 12:03:45;;;;;;;0.00;0.00;;;17.20;96.60;;;;;;5103227;28;20020;-70
2022/04/24 12:06:11;;;;;;;0.00;0.00;;;17.30;96.40;;;;;;5097926;28;20478;-71
2022/04/24 12:08:40;;;;;;;0.00;0.00;;;17.40;96.50;;;;;;5099342;28;20117;-70
2022/04/24 12:11:07;;;;;;;0.00;0.00;;;17.30;96.90;;;;;;5097546;28;20497;-69
2022/04/24 12:13:33;;;;;;;0.00;0.00;;;17.20;96.10;;;;;;5090114;28;20043;-71
2022/04/24 12:15:59;;;;;;;0.00;0.00;;;17.00;95.90;;;;;;5096617;28;20019;-70
2022/04/24 12:18:28;;;;;;;0.00;0.00;;;16.90;95.70;;;;;;5102328;28;20418;-69
2022/04/24 12:20:55;;;;;;;0.00;0.00;;;16.80;95.20;;;;;;5098924;28;20028;-71
2022/04/24 12:23:22;;;;;;;0.00;0.00;;;17.00;94.50;;;;;;5109773;28;20098;-71
2022/04/24 12:25:56;;;;;;;0.00;0.00;;;17.20;94.10;;;;;;5106112;28;20431;-71
2022/04/24 12:28:40;;;;;;;0.00;0.00;;;17.60;93.50;;;;;;5108386;28;20526;-70
2022/04/24 12:31:07;;;;;;;0.00;0.00;;;18.00;93.70;;;;;;5109099;28;20115;-70
2022/04/24 12:33:48;;;;;;;0.00;0.00;;;18.10;94.00;;;;;;5107209;28;20024;-71
2022/04/24 12:36:15;;;;;;;0.00;0.00;;;17.70;93.00;;;;;;5094138;28;20020;-69
2022/04/24 12:39:06;;;;;;;0.00;0.00;;;17.60;92.10;;;;;;5084117;28;20027;-71
2022/04/24 12:41:33;;;;;;;0.00;0.00;;;17.60;93.50;;;;;;5107551;28;20034;-69
2022/04/24 12:44:08;;;;;;;0.00;0.00;;;17.60;92.90;;;;;;5098600;27;20024;-70
2022/04/24 12:46:35;;;;;;;0.00;0.00;;;17.60;93.10;;;;;;5113582;28;20015;-70
2022/04/24 12:49:03;;;;;;;0.00;0.00;;;17.60;93.50;;;;;;5103999;28;20039;-69
2022/04/24 12:51:29;;;;;;;0.00;0.00;;;17.60;92.10;;;;;;5112883;28;20464;-70
2022/04/24 12:53:57;;;;;;;0.00;0.00;;;17.70;92.60;;;;;;5109618;28;20159;-69
2022/04/24 12:56:24;;;;;;;0.00;0.00;;;17.80;92.00;;;;;;5108805;28;20122;-70
2022/04/24 12:58:49;;;;;;;0.00;0.00;;;18.00;91.60;;;;;;5107567;28;20059;-70
2022/04/24 13:01:15;;;;;;;;;;;18.20;91.40;;;;;;5113210;28;20030;-73